Paullina, Iowa
Current Conditions -  °F | °C
As of 12:15 AM on Wednesday 28 Jan 2015 (Local Time) from KSHL Reporting Station
Clear Clear  
Wind Chill: 23°   Ceiling: Unl
Heat Index: 34°   Visibility: 10mi
Dew Point: 34°   Wind: 18mph
Humidity: 100%   Direction: 150°SSE
Pressure: 29.96"   Gusts: 24mph
Location:  42.98°N, 95.69°W
Report Text: KSHL 280615Z AUTO 15016G21KT 10SM CLR 01/01 A2996 RMK AO2
Loading
Personal Weather Stations






























Interactive Weather Map New forecast layout! Learn more

10-Day Weather Forecast

Advertisements
Track Severe Weather on mobile